createdAt,value
2022-12-07T00:01:22.698Z,3.58
2022-12-07T00:03:49.853Z,3.47
2022-12-07T00:06:16.850Z,3.30
2022-12-07T00:08:43.292Z,3.60
2022-12-07T00:11:11.419Z,3.20
2022-12-07T00:13:38.353Z,2.90
2022-12-07T00:16:06.494Z,3.45
2022-12-07T00:18:33.048Z,3.40
2022-12-07T00:21:02.272Z,2.75
2022-12-07T00:23:28.559Z,4.10
2022-12-07T00:25:54.850Z,2.72
2022-12-07T00:28:21.090Z,3.17
2022-12-07T00:30:47.375Z,2.65
2022-12-07T00:33:13.671Z,2.90
2022-12-07T00:35:39.905Z,3.20
2022-12-07T00:38:06.151Z,2.90
2022-12-07T00:40:32.429Z,3.55
2022-12-07T00:42:58.717Z,3.38
2022-12-07T00:45:25.102Z,3.42
2022-12-07T00:47:51.372Z,2.88
2022-12-07T00:50:17.588Z,3.40
2022-12-07T00:52:43.893Z,3.30
2022-12-07T00:55:10.120Z,2.78
2022-12-07T00:57:36.449Z,2.70
2022-12-07T01:00:03.124Z,2.80
2022-12-07T01:02:29.541Z,2.05
2022-12-07T01:04:55.765Z,2.70
2022-12-07T01:07:22.077Z,2.53
2022-12-07T01:09:48.296Z,2.90
2022-12-07T01:12:14.582Z,2.22
2022-12-07T01:14:42.410Z,2.35
2022-12-07T01:17:08.700Z,1.92
2022-12-07T01:19:34.953Z,1.60
2022-12-07T01:22:01.246Z,1.80
2022-12-07T01:24:27.534Z,2.17
2022-12-07T01:26:53.813Z,2.90
2022-12-07T01:29:20.094Z,2.25
2022-12-07T01:31:49.228Z,1.42
2022-12-07T01:34:15.500Z,2.25
2022-12-07T01:36:41.740Z,1.63
2022-12-07T01:39:08.422Z,2.10
2022-12-07T01:41:36.335Z,1.50
2022-12-07T01:44:14.189Z,1.40
2022-12-07T01:46:40.842Z,1.70
2022-12-07T01:49:09.597Z,1.92
2022-12-07T01:51:38.574Z,1.70
2022-12-07T01:54:04.968Z,1.00
2022-12-07T01:56:31.851Z,1.38
2022-12-07T01:58:58.674Z,1.30
2022-12-07T02:01:25.013Z,1.63
2022-12-07T02:03:51.651Z,1.75
2022-12-07T02:06:20.085Z,1.55
2022-12-07T02:08:46.861Z,1.90
2022-12-07T02:11:13.229Z,1.42
2022-12-07T02:13:41.267Z,1.23
2022-12-07T02:16:26.309Z,1.35
2022-12-07T02:19:15.679Z,1.35
2022-12-07T02:21:41.874Z,1.15
2022-12-07T02:24:08.076Z,1.45
2022-12-07T02:26:34.316Z,1.30
2022-12-07T02:29:18.767Z,1.63
2022-12-07T02:31:55.958Z,2.00
2022-12-07T02:34:24.917Z,1.30
2022-12-07T02:36:55.258Z,1.48
2022-12-07T02:39:26.132Z,2.13
2022-12-07T02:41:53.710Z,2.42
2022-12-07T02:44:22.249Z,2.03
2022-12-07T02:46:52.070Z,0.95
2022-12-07T02:49:18.653Z,1.20
2022-12-07T02:51:46.825Z,1.23
2022-12-07T02:54:14.895Z,1.13
2022-12-07T02:56:44.187Z,1.25
2022-12-07T02:59:19.813Z,2.15
2022-12-07T03:02:01.479Z,1.33
2022-12-07T03:04:42.298Z,1.23
2022-12-07T03:07:28.828Z,1.15
2022-12-07T03:10:02.573Z,1.05
2022-12-07T03:12:41.093Z,1.30
2022-12-07T03:15:15.413Z,1.63
2022-12-07T03:17:43.086Z,2.28
2022-12-07T03:20:11.825Z,1.35
2022-12-07T03:22:39.193Z,1.17
2022-12-07T03:25:07.189Z,1.00
2022-12-07T03:27:42.170Z,1.58
2022-12-07T03:30:11.057Z,1.25
2022-12-07T03:32:43.572Z,1.50
2022-12-07T03:35:13.609Z,1.25
2022-12-07T03:37:46.978Z,0.63
2022-12-07T03:40:20.517Z,0.93
2022-12-07T03:42:47.380Z,0.80
2022-12-07T03:45:13.749Z,1.15
2022-12-07T03:47:43.088Z,0.88
2022-12-07T03:50:17.056Z,1.00
2022-12-07T03:52:46.868Z,1.13
2022-12-07T03:55:13.162Z,1.23
2022-12-07T03:57:41.039Z,1.33
2022-12-07T04:00:08.553Z,1.35
2022-12-07T04:02:35.123Z,1.10
2022-12-07T04:05:01.875Z,1.20
2022-12-07T04:07:28.204Z,1.08
2022-12-07T04:09:55.799Z,1.55
2022-12-07T04:12:22.509Z,0.82
2022-12-07T04:14:48.819Z,1.17
2022-12-07T04:17:15.126Z,0.95
2022-12-07T04:19:41.419Z,0.88
2022-12-07T04:22:07.710Z,0.68
2022-12-07T04:24:34.049Z,0.90
2022-12-07T04:27:00.356Z,0.80
2022-12-07T04:29:27.082Z,0.63
2022-12-07T04:31:53.666Z,1.33
2022-12-07T04:34:20.302Z,0.85
2022-12-07T04:36:47.219Z,0.88
2022-12-07T04:39:18.719Z,0.93
2022-12-07T04:41:45.125Z,0.82
2022-12-07T04:44:12.619Z,1.27
2022-12-07T04:46:38.916Z,0.70
2022-12-07T04:49:05.157Z,0.82
2022-12-07T04:51:31.442Z,0.70
2022-12-07T04:53:57.726Z,0.73
2022-12-07T04:56:24.197Z,0.88
2022-12-07T04:58:52.336Z,0.50
2022-12-07T05:01:19.030Z,0.40
2022-12-07T05:03:45.441Z,0.75
2022-12-07T05:06:13.855Z,0.60
2022-12-07T05:08:40.773Z,1.15
2022-12-07T05:11:07.877Z,0.80
2022-12-07T05:13:34.518Z,0.57
2022-12-07T05:16:00.837Z,0.77
2022-12-07T05:18:27.129Z,0.95
2022-12-07T05:20:53.899Z,0.50
2022-12-07T05:23:20.204Z,0.88
2022-12-07T05:25:47.248Z,0.52
2022-12-07T05:28:13.527Z,0.70
2022-12-07T05:30:40.034Z,0.30
2022-12-07T05:33:06.300Z,0.38
2022-12-07T05:35:32.568Z,0.82
2022-12-07T05:37:59.277Z,0.80
2022-12-07T05:40:25.546Z,0.95
2022-12-07T05:42:51.843Z,0.50
2022-12-07T05:45:18.093Z,0.50
2022-12-07T05:47:44.382Z,0.50
2022-12-07T05:50:10.705Z,0.75
2022-12-07T05:52:36.994Z,0.63
2022-12-07T05:55:03.354Z,0.65
2022-12-07T05:57:29.622Z,0.68
2022-12-07T05:59:55.898Z,1.35
2022-12-07T06:02:22.237Z,1.00
2022-12-07T06:04:48.638Z,0.80
2022-12-07T06:07:16.731Z,0.90
2022-12-07T06:09:42.958Z,0.50
2022-12-07T06:12:45.989Z,0.90
2022-12-07T06:15:13.932Z,1.08
2022-12-07T06:17:40.374Z,1.40
2022-12-07T06:20:07.220Z,1.70
2022-12-07T06:22:33.564Z,2.35
2022-12-07T06:25:02.736Z,1.30
2022-12-07T06:27:33.674Z,1.40
2022-12-07T06:30:00.292Z,1.20
2022-12-07T06:32:27.133Z,1.20
2022-12-07T06:34:53.417Z,1.23
2022-12-07T06:37:19.683Z,1.33
2022-12-07T06:39:46.581Z,1.40
2022-12-07T06:42:12.809Z,1.08
2022-12-07T06:44:39.024Z,1.48
2022-12-07T06:47:39.073Z,1.65
2022-12-07T06:49:51.814Z,1.20
2022-12-07T06:52:18.065Z,1.52
2022-12-07T06:54:44.422Z,2.25
2022-12-07T06:57:10.691Z,1.67
2022-12-07T06:59:37.063Z,1.58
2022-12-07T07:02:03.386Z,1.63
2022-12-07T07:04:29.641Z,1.48
2022-12-07T07:06:59.993Z,1.70
2022-12-07T07:09:27.117Z,1.27
2022-12-07T07:11:53.357Z,1.10
2022-12-07T07:14:20.423Z,1.50
2022-12-07T07:16:46.797Z,1.40
2022-12-07T07:19:13.132Z,1.13
2022-12-07T07:21:39.434Z,1.00
2022-12-07T07:24:05.958Z,1.30
2022-12-07T07:26:32.243Z,1.42
2022-12-07T07:28:58.482Z,1.55
2022-12-07T07:31:24.804Z,1.23
2022-12-07T07:33:51.060Z,1.75
2022-12-07T07:36:17.328Z,2.28
2022-12-07T07:38:43.567Z,1.60
2022-12-07T07:41:09.913Z,1.27
2022-12-07T07:43:36.178Z,1.00
2022-12-07T07:46:02.485Z,2.10
2022-12-07T07:48:28.846Z,1.75
2022-12-07T07:50:55.118Z,2.70
2022-12-07T07:53:21.478Z,1.80
2022-12-07T07:55:51.479Z,1.73
2022-12-07T07:58:17.758Z,2.03
2022-12-07T08:00:44.081Z,1.83
2022-12-07T08:03:10.341Z,1.63
2022-12-07T08:05:37.794Z,1.63
2022-12-07T08:08:04.299Z,1.55
2022-12-07T08:10:32.966Z,2.15
2022-12-07T08:13:11.566Z,2.72
2022-12-07T08:15:38.734Z,2.97
2022-12-07T08:18:05.186Z,2.08
2022-12-07T08:20:32.897Z,3.30
2022-12-07T08:22:59.318Z,2.83
2022-12-07T08:25:26.030Z,2.70
2022-12-07T08:27:52.825Z,3.92
2022-12-07T08:30:19.569Z,2.53
2022-12-07T08:32:46.644Z,2.33
2022-12-07T08:35:13.589Z,2.05
2022-12-07T08:37:39.886Z,1.98
2022-12-07T08:40:06.907Z,2.38
2022-12-07T08:42:38.763Z,2.55
2022-12-07T08:45:06.509Z,1.60
2022-12-07T08:47:33.045Z,1.35
2022-12-07T08:50:04.417Z,0.80
2022-12-07T08:52:31.689Z,1.73
2022-12-07T08:54:58.362Z,1.00
2022-12-07T08:57:24.658Z,1.33
2022-12-07T08:59:50.903Z,0.98
2022-12-07T09:02:17.364Z,0.77
2022-12-07T09:04:43.630Z,0.93
2022-12-07T09:07:10.053Z,1.05
2022-12-07T09:09:36.414Z,1.20
2022-12-07T09:12:02.916Z,0.70
2022-12-07T09:14:29.264Z,0.68
2022-12-07T09:16:55.567Z,1.10
2022-12-07T09:19:21.874Z,1.13
2022-12-07T09:21:48.166Z,1.13
2022-12-07T09:24:14.609Z,0.98
2022-12-07T09:26:41.338Z,1.13
2022-12-07T09:29:07.572Z,1.10
2022-12-07T09:31:33.997Z,1.52
2022-12-07T09:34:01.592Z,1.23
2022-12-07T09:36:28.652Z,1.67
2022-12-07T09:38:55.132Z,1.17
2022-12-07T09:41:21.910Z,1.92
2022-12-07T09:43:48.316Z,1.73
2022-12-07T09:46:16.358Z,1.20
2022-12-07T09:48:43.409Z,1.10
2022-12-07T09:51:25.283Z,1.40
2022-12-07T09:53:53.041Z,0.90
2022-12-07T09:56:19.979Z,1.00
2022-12-07T09:58:46.918Z,0.80
2022-12-07T10:01:14.665Z,1.08
2022-12-07T10:03:43.721Z,1.33
2022-12-07T10:06:11.983Z,1.13
2022-12-07T10:08:38.286Z,1.25
2022-12-07T10:11:04.705Z,0.98
2022-12-07T10:13:49.728Z,1.10
2022-12-07T10:16:24.899Z,1.48
2022-12-07T10:18:52.109Z,0.98
2022-12-07T10:21:21.607Z,0.95
2022-12-07T10:24:04.479Z,1.02
2022-12-07T10:26:51.176Z,0.73
2022-12-07T10:29:17.723Z,1.17
2022-12-07T10:31:45.056Z,1.05
2022-12-07T10:34:27.489Z,1.13
2022-12-07T10:36:54.882Z,1.05
2022-12-07T10:39:22.280Z,1.08
2022-12-07T10:41:56.179Z,1.15
2022-12-07T10:44:27.197Z,1.70
2022-12-07T10:49:19.701Z,1.23
2022-12-07T10:51:45.963Z,1.30
2022-12-07T10:54:19.443Z,1.83
2022-12-07T10:56:54.716Z,1.73
2022-12-07T10:59:27.052Z,1.02
2022-12-07T11:02:01.144Z,1.33
2022-12-07T11:04:44.698Z,1.30
2022-12-07T11:07:23.268Z,1.23
2022-12-07T11:10:13.552Z,1.17
2022-12-07T11:12:45.833Z,1.20
2022-12-07T11:15:21.008Z,0.95
2022-12-07T11:17:54.287Z,1.50
2022-12-07T11:20:35.564Z,1.10
2022-12-07T11:23:20.666Z,1.25
2022-12-07T11:25:52.988Z,1.20
2022-12-07T11:28:19.210Z,1.00
2022-12-07T11:30:54.865Z,1.05
2022-12-07T11:33:30.633Z,1.10
2022-12-07T11:36:02.614Z,1.20
2022-12-07T11:38:42.350Z,1.27
2022-12-07T11:41:16.131Z,1.23
2022-12-07T11:43:45.197Z,1.00
2022-12-07T11:46:16.222Z,0.52
2022-12-07T11:49:11.918Z,0.68
2022-12-07T11:51:39.272Z,1.00
2022-12-07T11:54:20.759Z,1.40
2022-12-07T11:56:49.089Z,1.52
2022-12-07T11:59:27.359Z,1.10
2022-12-07T12:02:12.004Z,1.27
2022-12-07T12:05:00.669Z,1.33
2022-12-07T12:10:20.898Z,1.02
2022-12-07T12:15:54.736Z,1.05
2022-12-07T12:18:23.957Z,1.02
2022-12-07T12:20:52.660Z,1.15
2022-12-07T12:23:23.604Z,1.55
2022-12-07T12:28:34.197Z,0.70
2022-12-07T12:31:09.720Z,0.90
2022-12-07T12:33:36.439Z,0.77
2022-12-07T12:36:21.507Z,1.27
2022-12-07T12:39:14.441Z,1.25
2022-12-07T12:41:46.722Z,0.75
2022-12-07T12:44:15.984Z,1.13
2022-12-07T12:46:50.766Z,0.80
2022-12-07T12:49:17.177Z,1.48
2022-12-07T12:51:44.280Z,0.88
2022-12-07T12:54:20.537Z,0.68
2022-12-07T12:56:52.632Z,1.05
2022-12-07T12:59:21.867Z,0.90
2022-12-07T13:01:49.246Z,0.60
2022-12-07T13:04:19.331Z,1.15
2022-12-07T13:06:46.236Z,0.80
2022-12-07T13:09:23.941Z,0.80
2022-12-07T13:11:51.197Z,0.70
2022-12-07T13:14:36.527Z,0.90
2022-12-07T13:17:02.897Z,0.17
2022-12-07T13:19:41.800Z,0.32
2022-12-07T13:22:26.893Z,0.15
2022-12-07T13:25:03.589Z,0.35
2022-12-07T13:27:31.130Z,0.50
2022-12-07T13:29:57.821Z,0.52
2022-12-07T13:32:29.317Z,0.50
2022-12-07T13:34:55.607Z,0.50
2022-12-07T13:37:21.902Z,0.52
2022-12-07T13:39:50.085Z,0.45
2022-12-07T13:42:22.899Z,0.40
2022-12-07T13:44:49.108Z,1.02
2022-12-07T13:47:18.641Z,0.70
2022-12-07T13:49:53.955Z,0.60
2022-12-07T13:52:25.397Z,1.00
2022-12-07T13:54:57.569Z,1.00
2022-12-07T13:57:25.592Z,0.60
2022-12-07T13:59:52.276Z,0.70
2022-12-07T14:02:21.530Z,0.75
2022-12-07T14:04:49.559Z,0.82
2022-12-07T14:07:20.703Z,0.80
2022-12-07T14:10:00.580Z,0.80
2022-12-07T14:12:27.773Z,0.70
2022-12-07T14:14:54.780Z,0.63
2022-12-07T14:17:23.689Z,0.57
2022-12-07T14:19:50.360Z,0.85
2022-12-07T14:22:36.301Z,0.82
2022-12-07T14:25:15.077Z,1.80
2022-12-07T14:27:48.469Z,1.35
2022-12-07T14:30:19.077Z,0.90
2022-12-07T14:32:49.465Z,1.00
2022-12-07T14:35:17.309Z,1.05
2022-12-07T14:37:44.802Z,1.15
2022-12-07T14:40:14.603Z,0.75
2022-12-07T14:42:41.826Z,2.10
2022-12-07T14:45:13.865Z,6.30
2022-12-07T14:50:26.357Z,3.15
2022-12-07T14:55:46.077Z,1.30
2022-12-07T14:58:15.710Z,0.77
2022-12-07T15:00:42.300Z,0.82
2022-12-07T15:03:08.721Z,1.63
2022-12-07T15:05:35.575Z,1.67
2022-12-07T15:08:01.978Z,1.17
2022-12-07T15:10:33.221Z,1.75
2022-12-07T15:13:18.994Z,1.70
2022-12-07T15:15:45.312Z,2.38
2022-12-07T15:18:11.658Z,1.60
2022-12-07T15:20:38.269Z,1.70
2022-12-07T15:23:04.566Z,1.90
2022-12-07T15:25:30.803Z,1.25
2022-12-07T15:27:57.022Z,1.58
2022-12-07T15:30:23.253Z,1.10
2022-12-07T15:32:52.985Z,1.30
2022-12-07T15:35:19.473Z,1.45
2022-12-07T15:37:45.776Z,1.00
2022-12-07T15:40:12.695Z,1.20
2022-12-07T15:42:39.104Z,1.52
2022-12-07T15:45:07.055Z,1.20
2022-12-07T15:48:03.961Z,1.58
2022-12-07T15:50:27.573Z,1.90
2022-12-07T15:52:53.868Z,1.63
2022-12-07T15:55:20.146Z,1.45
2022-12-07T15:57:46.394Z,2.08
2022-12-07T16:00:13.513Z,2.33
2022-12-07T16:02:40.405Z,2.30
2022-12-07T16:05:06.936Z,2.03
2022-12-07T16:07:33.238Z,1.20
2022-12-07T16:09:59.537Z,2.45
2022-12-07T16:12:26.171Z,2.60
2022-12-07T16:14:52.440Z,3.25
2022-12-07T16:17:18.707Z,2.70
2022-12-07T16:19:45.053Z,2.95
2022-12-07T16:22:11.366Z,5.93
2022-12-07T16:24:37.647Z,6.38
2022-12-07T16:27:03.965Z,2.55
2022-12-07T16:29:30.226Z,2.58
2022-12-07T16:31:56.557Z,3.22
2022-12-07T16:34:22.860Z,2.33
2022-12-07T16:37:05.532Z,2.70
2022-12-07T16:39:32.905Z,2.78
2022-12-07T16:41:59.140Z,3.10
2022-12-07T16:44:25.575Z,3.30
2022-12-07T16:46:51.907Z,2.67
2022-12-07T16:49:19.378Z,2.60
2022-12-07T16:51:45.834Z,2.28
2022-12-07T16:54:12.728Z,2.03
2022-12-07T16:56:39.096Z,3.08
2022-12-07T16:59:05.378Z,2.67
2022-12-07T17:01:31.887Z,1.42
2022-12-07T17:03:58.872Z,2.15
2022-12-07T17:06:26.433Z,2.47
2022-12-07T17:08:52.944Z,4.53
2022-12-07T17:11:23.479Z,3.80
2022-12-07T17:14:08.240Z,1.85
2022-12-07T17:16:35.728Z,3.05
2022-12-07T17:19:06.348Z,9.77
2022-12-07T17:21:33.015Z,5.40
2022-12-07T17:23:59.865Z,4.18
2022-12-07T17:26:30.641Z,3.15
2022-12-07T17:29:01.317Z,3.58
2022-12-07T17:31:27.736Z,1.88
2022-12-07T17:33:54.028Z,2.78
2022-12-07T17:36:21.581Z,2.75
2022-12-07T17:38:50.737Z,2.28
2022-12-07T17:41:39.729Z,2.30
2022-12-07T17:44:07.266Z,2.40
2022-12-07T17:46:33.878Z,2.60
2022-12-07T17:49:00.690Z,2.47
2022-12-07T17:51:45.538Z,2.20
2022-12-07T17:54:12.246Z,2.20
2022-12-07T17:56:38.579Z,2.03
2022-12-07T17:59:05.233Z,1.73
2022-12-07T18:01:34.795Z,1.60
2022-12-07T18:04:01.563Z,1.67
2022-12-07T18:06:27.974Z,1.50
2022-12-07T18:08:54.324Z,2.63
2022-12-07T18:11:20.565Z,3.40
2022-12-07T18:13:46.825Z,3.55
2022-12-07T18:16:14.449Z,3.83
2022-12-07T18:18:41.042Z,3.00
2022-12-07T18:21:18.405Z,2.83
2022-12-07T18:23:45.503Z,4.10
2022-12-07T18:26:11.802Z,6.97
2022-12-07T18:28:38.045Z,3.35
2022-12-07T18:31:19.552Z,2.40
2022-12-07T18:33:46.720Z,2.70
2022-12-07T18:36:13.598Z,2.35
2022-12-07T18:38:39.916Z,2.35
2022-12-07T18:41:11.305Z,2.92
2022-12-07T18:43:37.781Z,2.20
2022-12-07T18:46:30.646Z,2.15
2022-12-07T18:48:57.201Z,2.30
2022-12-07T18:51:27.399Z,2.25
2022-12-07T18:53:56.823Z,6.78
2022-12-07T18:56:24.456Z,2.58
2022-12-07T18:59:10.377Z,2.67
2022-12-07T19:01:36.902Z,2.88
2022-12-07T19:04:03.315Z,3.42
2022-12-07T19:06:29.654Z,2.70
2022-12-07T19:08:56.164Z,2.00
2022-12-07T19:11:45.547Z,1.73
2022-12-07T19:14:12.240Z,2.85
2022-12-07T19:16:38.859Z,2.97
2022-12-07T19:19:05.118Z,2.08
2022-12-07T19:21:31.836Z,2.60
2022-12-07T19:23:58.101Z,3.30
2022-12-07T19:26:24.397Z,2.88
2022-12-07T19:28:50.705Z,3.70
2022-12-07T19:31:17.074Z,5.88
2022-12-07T19:33:43.418Z,3.75
2022-12-07T19:36:09.847Z,3.85
2022-12-07T19:38:36.280Z,5.28
2022-12-07T19:41:29.361Z,5.22
2022-12-07T19:43:55.778Z,4.25
2022-12-07T19:46:22.142Z,5.00
2022-12-07T19:48:48.430Z,5.10
2022-12-07T19:51:14.713Z,4.70
2022-12-07T19:53:41.010Z,4.40
2022-12-07T19:56:07.885Z,5.60
2022-12-07T19:58:34.199Z,4.43
2022-12-07T20:01:04.009Z,4.47
2022-12-07T20:03:30.312Z,3.17
2022-12-07T20:05:57.338Z,3.72
2022-12-07T20:08:24.126Z,5.00
2022-12-07T20:10:53.603Z,3.03
2022-12-07T20:13:28.938Z,5.10
2022-12-07T20:16:11.335Z,5.50
2022-12-07T20:18:41.921Z,3.55
2022-12-07T20:21:08.202Z,4.93
2022-12-07T20:23:34.506Z,3.65
2022-12-07T20:26:05.774Z,4.07
2022-12-07T20:28:32.210Z,4.28
2022-12-07T20:30:58.619Z,5.28
2022-12-07T20:33:25.047Z,4.60
2022-12-07T20:35:51.346Z,4.38
2022-12-07T20:38:17.930Z,7.60
2022-12-07T20:40:48.106Z,6.03
2022-12-07T20:43:14.375Z,4.60
2022-12-07T20:45:47.247Z,19.92
2022-12-07T20:48:13.685Z,14.65
2022-12-07T20:50:42.369Z,5.40
2022-12-07T20:53:09.155Z,5.35
2022-12-07T20:55:35.682Z,2.45
2022-12-07T20:58:02.188Z,2.53
2022-12-07T21:00:28.464Z,2.70
2022-12-07T21:02:56.808Z,2.65
2022-12-07T21:05:23.956Z,2.88
2022-12-07T21:07:50.364Z,2.42
2022-12-07T21:10:16.771Z,2.50
2022-12-07T21:12:43.337Z,2.00
2022-12-07T21:15:09.733Z,2.20
2022-12-07T21:17:36.058Z,1.63
2022-12-07T21:20:02.562Z,1.80
2022-12-07T21:22:28.810Z,2.35
2022-12-07T21:24:55.087Z,2.13
2022-12-07T21:27:21.346Z,1.88
2022-12-07T21:29:52.519Z,1.80
2022-12-07T21:32:20.472Z,1.95
2022-12-07T21:34:46.844Z,2.53
2022-12-07T21:37:13.132Z,1.67
2022-12-07T21:39:39.432Z,2.42
2022-12-07T21:42:05.798Z,2.10
2022-12-07T21:44:32.094Z,1.63
2022-12-07T21:47:00.315Z,2.25
2022-12-07T21:49:26.605Z,2.50
2022-12-07T21:51:52.847Z,1.50
2022-12-07T21:54:24.190Z,2.13
2022-12-07T21:56:52.094Z,1.88
2022-12-07T21:59:18.423Z,2.47
2022-12-07T22:01:47.129Z,1.65
2022-12-07T22:04:18.310Z,1.88
2022-12-07T22:06:45.477Z,1.80
2022-12-07T22:09:12.015Z,2.00
2022-12-07T22:11:38.270Z,2.40
2022-12-07T22:14:24.114Z,1.88
2022-12-07T22:16:50.900Z,3.10
2022-12-07T22:19:19.850Z,2.22
2022-12-07T22:21:46.244Z,7.35
2022-12-07T22:24:13.951Z,1.65
2022-12-07T22:26:40.718Z,1.30
2022-12-07T22:29:06.998Z,2.33
2022-12-07T22:31:33.407Z,1.63
2022-12-07T22:33:59.966Z,1.98
2022-12-07T22:36:28.087Z,1.40
2022-12-07T22:38:54.353Z,2.35
2022-12-07T22:41:24.733Z,1.50
2022-12-07T22:43:52.184Z,1.50
2022-12-07T22:46:18.501Z,1.60
2022-12-07T22:48:44.823Z,1.73
2022-12-07T22:51:20.336Z,1.65
2022-12-07T22:53:46.635Z,1.58
2022-12-07T22:56:12.934Z,2.13
2022-12-07T22:58:39.860Z,1.75
2022-12-07T23:01:09.941Z,2.03
2022-12-07T23:03:36.336Z,2.20
2022-12-07T23:06:09.320Z,1.83
2022-12-07T23:08:36.071Z,1.73
2022-12-07T23:11:02.834Z,2.20
2022-12-07T23:13:32.152Z,1.90
2022-12-07T23:16:07.296Z,1.80
2022-12-07T23:18:33.644Z,1.92
2022-12-07T23:20:59.938Z,1.73
2022-12-07T23:23:26.268Z,1.30
2022-12-07T23:25:52.903Z,1.70
2022-12-07T23:28:19.489Z,1.70
2022-12-07T23:30:45.829Z,1.58
2022-12-07T23:33:12.128Z,1.65
2022-12-07T23:35:38.361Z,1.85
2022-12-07T23:38:04.736Z,1.95
2022-12-07T23:40:31.070Z,2.15
2022-12-07T23:42:57.328Z,1.77
2022-12-07T23:45:23.569Z,1.90
2022-12-07T23:47:49.842Z,2.53
2022-12-07T23:50:16.120Z,2.05
2022-12-07T23:52:42.420Z,2.13
2022-12-07T23:55:08.968Z,2.25
2022-12-07T23:57:35.198Z,2.42
